createdAt,value
2023-03-02T00:01:40.288Z,20.60
2023-03-02T00:06:44.244Z,38.90
2023-03-02T00:11:48.327Z,46.30
2023-03-02T00:16:52.336Z,25.90
2023-03-02T00:21:56.488Z,15.80
2023-03-02T00:27:00.179Z,5.90
2023-03-02T00:32:07.117Z,6.90
2023-03-02T00:37:11.388Z,10.40
2023-03-02T00:42:15.074Z,6.40
2023-03-02T00:47:18.885Z,19.10
2023-03-02T00:52:22.750Z,12.60
2023-03-02T00:57:27.289Z,20.10
2023-03-02T01:02:32.673Z,16.10
2023-03-02T01:07:36.595Z,20.70
2023-03-02T01:12:40.984Z,79.50
2023-03-02T01:17:44.986Z,38.90
2023-03-02T01:22:48.832Z,33.70
2023-03-02T01:27:56.371Z,25.70
2023-03-02T01:33:00.113Z,17.70
2023-03-02T01:38:07.463Z,12.10
2023-03-02T01:43:17.053Z,7.20
2023-03-02T01:48:47.347Z,4.10
2023-03-02T01:54:01.466Z,3.50
2023-03-02T01:59:12.405Z,13.70
2023-03-02T02:12:46.649Z,40.40
2023-03-02T02:17:54.797Z,50.60
2023-03-02T02:23:49.247Z,13.90
2023-03-02T02:29:01.060Z,11.00
2023-03-02T02:34:23.055Z,14.20
2023-03-02T02:39:33.908Z,14.00
2023-03-02T02:44:37.949Z,11.30
2023-03-02T02:49:42.693Z,22.90
2023-03-02T02:54:51.622Z,20.30
2023-03-02T03:00:00.947Z,17.50
2023-03-02T03:05:05.705Z,19.10
2023-03-02T03:10:40.469Z,18.50
2023-03-02T03:15:44.501Z,11.80
2023-03-02T03:21:39.228Z,5.70
2023-03-02T03:26:43.870Z,4.90
2023-03-02T03:31:47.594Z,4.30
2023-03-02T03:37:41.602Z,8.50
2023-03-02T03:42:45.489Z,7.10
2023-03-02T03:47:49.330Z,5.00
2023-03-02T03:52:53.063Z,8.20
2023-03-02T03:58:22.571Z,7.70
2023-03-02T04:03:27.459Z,10.40
2023-03-02T04:08:31.271Z,28.60
2023-03-02T04:13:34.986Z,27.60
2023-03-02T04:18:38.809Z,26.70
2023-03-02T04:25:00.164Z,42.40
2023-03-02T04:30:05.345Z,27.90
2023-03-02T04:35:09.990Z,31.90
2023-03-02T04:40:15.802Z,9.70
2023-03-02T04:45:20.004Z,3.60
2023-03-02T04:50:24.216Z,5.10
2023-03-02T04:55:28.861Z,10.60
2023-03-02T05:00:34.656Z,35.20
2023-03-02T05:05:38.946Z,14.60
2023-03-02T05:10:42.852Z,288.00
2023-03-02T05:24:17.230Z,19.00
2023-03-02T05:29:21.534Z,20.70
2023-03-02T05:35:16.768Z,16.70
2023-03-02T06:01:33.026Z,172.50
2023-03-02T06:06:37.552Z,81.00
2023-03-02T06:18:49.842Z,22.90
2023-03-02T06:24:44.535Z,32.60
2023-03-02T06:29:48.517Z,41.30
2023-03-02T06:34:52.466Z,44.80
2023-03-02T06:39:58.255Z,71.40
2023-03-02T06:45:02.519Z,45.60
2023-03-02T06:50:07.565Z,21.20
2023-03-02T06:55:33.296Z,21.20
2023-03-02T07:01:54.964Z,20.60
2023-03-02T07:06:59.010Z,22.00
2023-03-02T07:18:56.230Z,6.70
2023-03-02T07:24:50.474Z,14.30
2023-03-02T07:30:21.584Z,31.50
2023-03-02T07:35:26.072Z,26.40
2023-03-02T07:40:55.261Z,15.90
2023-03-02T07:52:48.385Z,34.30
2023-03-02T07:57:52.543Z,36.70
2023-03-02T08:02:56.380Z,16.90
2023-03-02T08:08:00.196Z,18.60
2023-03-02T08:20:12.930Z,19.30
2023-03-02T08:25:17.099Z,6.90
2023-03-02T08:30:21.131Z,25.20
2023-03-02T08:35:26.756Z,17.30
2023-03-02T08:40:56.420Z,11.00
2023-03-02T08:47:23.070Z,12.20
2023-03-02T08:52:27.284Z,28.30
2023-03-02T08:57:48.090Z,25.50
2023-03-02T09:03:42.599Z,53.80
2023-03-02T09:16:20.689Z,20.20
2023-03-02T09:30:00.175Z,17.10
2023-03-02T09:35:55.571Z,22.40
2023-03-02T09:41:21.481Z,17.60
2023-03-02T09:53:44.906Z,10.90
2023-03-02T09:59:31.769Z,15.30
2023-03-02T10:12:26.476Z,20.50
2023-03-02T10:18:11.725Z,17.50
2023-03-02T10:23:35.366Z,13.40
2023-03-02T10:28:49.809Z,17.00
2023-03-02T10:34:28.390Z,10.60
2023-03-02T10:39:34.402Z,13.20
2023-03-02T10:44:46.229Z,8.60
2023-03-02T10:50:53.798Z,10.60
2023-03-02T11:14:38.972Z,7.90
2023-03-02T11:19:44.457Z,5.00
2023-03-02T11:24:58.971Z,5.70
2023-03-02T11:30:23.494Z,5.00
2023-03-02T11:35:44.461Z,10.00
2023-03-02T11:40:53.452Z,10.70
2023-03-02T11:49:19.537Z,9.40
2023-03-02T11:54:46.595Z,12.90
2023-03-02T11:59:52.881Z,8.20
2023-03-02T12:05:25.230Z,10.40
2023-03-02T12:10:44.012Z,6.90
2023-03-02T12:15:51.295Z,5.80
2023-03-02T12:21:39.543Z,6.40
2023-03-02T12:26:43.335Z,11.20
2023-03-02T12:31:56.077Z,15.30
2023-03-02T12:37:08.026Z,10.00
2023-03-02T12:42:44.280Z,13.30
2023-03-02T12:48:02.273Z,8.20
2023-03-02T12:53:17.798Z,8.20
2023-03-02T12:58:28.782Z,9.90
2023-03-02T13:03:32.705Z,8.00
2023-03-02T13:08:38.606Z,12.70
2023-03-02T13:13:45.670Z,19.50
2023-03-02T13:18:57.499Z,19.40
2023-03-02T13:24:02.951Z,17.90
2023-03-02T13:29:15.138Z,14.90
2023-03-02T13:34:33.516Z,13.60
2023-03-02T13:39:37.755Z,16.20
2023-03-02T13:44:41.668Z,12.00
2023-03-02T13:49:46.058Z,15.60
2023-03-02T13:54:50.194Z,23.40
2023-03-02T13:59:55.397Z,16.00
2023-03-02T14:04:59.408Z,21.60
2023-03-02T14:10:04.806Z,16.80
2023-03-02T14:15:15.680Z,13.80
2023-03-02T14:20:21.220Z,25.10
2023-03-02T14:25:25.181Z,13.10
2023-03-02T14:30:29.494Z,69.50
2023-03-02T14:35:33.758Z,18.60
2023-03-02T14:40:38.514Z,12.40
2023-03-02T14:45:42.438Z,105.20
2023-03-02T14:50:50.878Z,38.40
2023-03-02T14:55:55.321Z,25.00
2023-03-02T15:01:00.357Z,131.20
2023-03-02T15:06:08.052Z,113.00
2023-03-02T15:11:12.910Z,242.10
2023-03-02T15:16:17.934Z,207.80
2023-03-02T15:21:25.266Z,160.30
2023-03-02T15:26:29.697Z,176.10
2023-03-02T15:31:35.329Z,97.40
2023-03-02T15:36:41.783Z,203.50
2023-03-02T15:41:47.992Z,53.70
2023-03-02T15:46:58.946Z,91.10
2023-03-02T15:52:03.201Z,100.30
2023-03-02T15:57:11.625Z,55.20
2023-03-02T16:02:17.836Z,104.00
2023-03-02T16:07:21.637Z,163.80
2023-03-02T16:12:28.046Z,126.10
2023-03-02T16:17:33.530Z,103.30
2023-03-02T16:22:39.469Z,118.60
2023-03-02T16:27:48.649Z,126.70
2023-03-02T16:32:52.751Z,108.30
2023-03-02T16:37:56.700Z,72.20
2023-03-02T16:43:00.724Z,124.50
2023-03-02T16:48:06.564Z,270.60
2023-03-02T16:53:10.506Z,322.40
2023-03-02T16:58:14.774Z,255.20
2023-03-02T17:03:19.118Z,246.90
2023-03-02T17:08:23.016Z,287.40
2023-03-02T17:13:27.452Z,165.90
2023-03-02T17:18:35.449Z,101.40
2023-03-02T17:23:42.494Z,190.70
2023-03-02T17:28:46.847Z,158.20
2023-03-02T17:33:51.577Z,362.70
2023-03-02T17:38:55.298Z,326.80
2023-03-02T17:44:03.636Z,484.30
2023-03-02T17:49:07.378Z,465.50
2023-03-02T17:54:11.472Z,342.60
2023-03-02T17:59:16.263Z,464.70
2023-03-02T18:04:20.683Z,344.20
2023-03-02T18:09:24.687Z,247.70
2023-03-02T18:14:32.060Z,208.10
2023-03-02T18:19:37.849Z,207.00
2023-03-02T18:24:42.680Z,313.50
2023-03-02T18:29:46.891Z,253.50
2023-03-02T18:34:51.055Z,201.80
2023-03-02T18:39:56.464Z,160.10
2023-03-02T18:45:01.220Z,151.10
2023-03-02T18:50:06.022Z,111.70
2023-03-02T18:55:12.477Z,115.30
2023-03-02T19:00:27.369Z,290.70
2023-03-02T19:05:31.896Z,201.60
2023-03-02T19:10:39.047Z,100.30
2023-03-02T19:15:44.368Z,118.00
2023-03-02T19:20:51.564Z,100.40
2023-03-02T19:25:57.034Z,145.70
2023-03-02T19:31:09.698Z,160.00
2023-03-02T19:36:14.609Z,150.00
2023-03-02T19:41:21.529Z,137.40
2023-03-02T19:46:27.486Z,129.10
2023-03-02T19:51:33.100Z,112.60
2023-03-02T19:56:40.651Z,138.60
2023-03-02T20:01:44.990Z,138.40
2023-03-02T20:06:49.826Z,124.30
2023-03-02T20:11:54.673Z,123.20
2023-03-02T20:16:58.850Z,171.70
2023-03-02T20:22:04.072Z,193.00
2023-03-02T20:27:09.091Z,102.40
2023-03-02T20:32:14.888Z,313.00
2023-03-02T20:37:18.995Z,269.90
2023-03-02T20:42:25.490Z,215.30
2023-03-02T20:47:30.755Z,204.10
2023-03-02T20:52:35.333Z,228.80
2023-03-02T20:57:39.693Z,226.60
2023-03-02T21:02:46.147Z,150.30
2023-03-02T21:07:52.939Z,136.00
2023-03-02T21:12:56.784Z,76.10
2023-03-02T21:18:03.805Z,95.60
2023-03-02T21:23:11.491Z,125.10
2023-03-02T21:28:15.518Z,116.40
2023-03-02T21:33:19.455Z,421.00
2023-03-02T21:38:23.614Z,359.90
2023-03-02T21:43:27.637Z,272.70
2023-03-02T21:48:32.404Z,304.30
2023-03-02T21:53:38.971Z,320.30
2023-03-02T21:58:43.186Z,439.50
2023-03-02T22:03:47.108Z,363.10
2023-03-02T22:08:51.963Z,336.20
2023-03-02T22:14:00.948Z,309.60
2023-03-02T22:19:27.332Z,270.30
2023-03-02T22:24:34.106Z,355.30
2023-03-02T22:29:48.122Z,510.50
2023-03-02T22:34:56.306Z,458.60
2023-03-02T22:40:27.817Z,462.50
2023-03-02T22:45:31.951Z,338.60
2023-03-02T22:50:37.423Z,337.80
2023-03-02T22:55:43.690Z,343.20
2023-03-02T23:00:48.958Z,328.00
2023-03-02T23:05:53.597Z,338.30
2023-03-02T23:10:59.735Z,217.20
2023-03-02T23:16:26.248Z,179.90
2023-03-02T23:21:42.236Z,134.90
2023-03-02T23:26:46.182Z,181.70
2023-03-02T23:31:50.819Z,131.40
2023-03-02T23:36:54.556Z,119.00
2023-03-02T23:41:58.444Z,135.10
2023-03-02T23:47:02.411Z,72.90
2023-03-02T23:52:06.349Z,77.30
2023-03-02T23:57:10.368Z,76.80
